Time;durP1;ratioP1;P1;durP2;ratioP2;P2;SDS_P1;SDS_P2;PMS_P1;PMS_P2;Temp;Humidity;BMP_temperature;BMP_pressure;BME280_temperature;BME280_humidity;BME280_pressure;Samples;Min_cycle;Max_cycle;Signal;HPM_P1;HPM_P2
2021/06/16 00:01:12;;;;;;;3.72;2.78;;;;;;;18.94;70.28;98631.81;4878069;28;103794;-76
2021/06/16 00:03:41;;;;;;;3.97;3.55;;;;;;;18.88;71.43;98638.66;4879368;28;102589;-75
2021/06/16 00:06:11;;;;;;;3.75;3.30;;;;;;;18.98;70.51;98633.97;4872799;28;103081;-75
2021/06/16 00:08:39;;;;;;;4.63;3.45;;;;;;;19.11;69.59;98630.81;4888091;28;104315;-76
2021/06/16 00:11:08;;;;;;;6.35;3.78;;;;;;;19.14;69.05;98632.34;4887990;28;103198;-75
2021/06/16 00:13:36;;;;;;;4.50;4.10;;;;;;;19.06;70.68;98636.66;4887068;28;102860;-75
2021/06/16 00:16:04;;;;;;;4.45;3.42;;;;;;;19.07;69.79;98627.63;4882456;28;102954;-77
2021/06/16 00:18:34;;;;;;;5.88;4.65;;;;;;;18.42;74.87;98639.16;4868644;28;103500;-75
2021/06/16 00:21:02;;;;;;;4.85;4.32;;;;;;;18.19;75.97;98630.03;4881073;28;104687;-75
2021/06/16 00:23:30;;;;;;;4.28;3.75;;;;;;;18.25;73.82;98634.72;4898258;28;103145;-78
2021/06/16 00:25:58;;;;;;;4.25;3.75;;;;;;;18.48;72.88;98635.88;4895280;28;102658;-79
2021/06/16 00:28:26;;;;;;;4.60;3.40;;;;;;;18.31;72.54;98632.25;4879975;28;103864;-75
2021/06/16 00:30:54;;;;;;;3.90;2.92;;;;;;;18.37;71.46;98628.09;4885670;28;103640;-77
2021/06/16 00:33:23;;;;;;;3.58;3.22;;;;;;;18.33;71.66;98626.75;4888163;28;102988;-75
2021/06/16 00:35:52;;;;;;;3.08;2.78;;;;;;;18.52;70.33;98626.53;4887613;28;103130;-75
2021/06/16 00:38:20;;;;;;;2.50;2.30;;;;;;;18.60;69.42;98626.53;4885288;28;103819;-75
2021/06/16 00:40:48;;;;;;;3.63;3.30;;;;;;;18.58;70.40;98625.88;4883106;28;103760;-75
2021/06/16 00:43:16;;;;;;;3.58;3.28;;;;;;;18.53;70.70;98618.31;4867898;28;102939;-75
2021/06/16 00:45:44;;;;;;;4.82;3.45;;;;;;;18.28;72.63;98629.06;4870565;28;102914;-75
2021/06/16 00:48:12;;;;;;;3.17;2.95;;;;;;;18.35;72.56;98624.75;4887749;28;104015;-76
2021/06/16 00:50:44;;;;;;;3.55;3.25;;;;;;;18.40;71.95;98622.44;4887697;28;104013;-77
2021/06/16 00:53:15;;;;;;;3.42;2.80;;;;;;;18.40;72.25;98633.13;4875484;28;103015;-75
2021/06/16 00:55:43;;;;;;;3.38;3.08;;;;;;;18.49;71.47;98626.84;4888414;28;103398;-75
2021/06/16 00:58:12;;;;;;;4.38;3.97;;;;;;;18.36;73.78;98623.75;4882999;28;103798;-76
2021/06/16 01:00:44;;;;;;;4.65;4.03;;;;;;;18.13;75.09;98625.34;4876207;28;103670;-75
2021/06/16 01:03:16;;;;;;;4.75;3.67;;;;;;;17.94;76.33;98627.22;4884516;28;103538;-74
2021/06/16 01:05:47;;;;;;;4.25;3.85;;;;;;;17.76;76.93;98631.81;4877467;28;103026;-76
2021/06/16 01:08:26;;;;;;;3.17;2.85;;;;;;;17.96;74.81;98624.41;4887373;28;103854;-75
2021/06/16 01:10:57;;;;;;;3.70;3.20;;;;;;;17.92;75.21;98629.22;4887590;28;103091;-74
2021/06/16 01:13:29;;;;;;;4.18;3.72;;;;;;;17.96;74.42;98630.56;4887323;28;103643;-75
2021/06/16 01:16:08;;;;;;;3.78;3.47;;;;;;;18.02;74.13;98628.28;4887879;28;103126;-74
2021/06/16 01:18:44;;;;;;;3.78;3.47;;;;;;;18.11;73.06;98621.97;4886889;28;105553;-75
2021/06/16 01:21:13;;;;;;;4.35;3.00;;;;;;;18.16;72.57;98622.34;4885165;28;103746;-74
2021/06/16 01:24:00;;;;;;;3.95;3.60;;;;;;;18.16;73.00;98627.69;4882974;28;102982;-75
2021/06/16 01:26:32;;;;;;;5.15;4.07;;;;;;;17.88;75.86;98630.53;4882086;28;102967;-74
2021/06/16 01:29:05;;;;;;;6.28;3.90;;;;;;;17.71;75.93;98633.28;4876500;28;106999;-75
2021/06/16 01:31:33;;;;;;;5.80;3.92;;;;;;;17.55;76.03;98625.97;4887225;28;103096;-74
2021/06/16 01:34:03;;;;;;;6.18;3.92;;;;;;;17.51;76.13;98619.25;4887343;28;103121;-74
2021/06/16 01:36:32;;;;;;;6.25;4.65;;;;;;;17.67;75.15;98624.75;4869797;28;103274;-75
2021/06/16 01:39:02;;;;;;;5.07;4.47;;;;;;;17.57;74.71;98634.66;4887348;28;105044;-75
2021/06/16 01:41:31;;;;;;;5.03;3.97;;;;;;;17.39;75.77;98625.84;4887061;28;104230;-75
2021/06/16 01:44:00;;;;;;;6.03;4.40;;;;;;;17.50;75.26;98627.41;4883457;28;102952;-75
2021/06/16 01:46:29;;;;;;;3.50;3.20;;;;;;;17.74;73.80;98625.78;4877073;28;103672;-74
2021/06/16 01:48:58;;;;;;;4.72;4.25;;;;;;;17.81;73.18;98632.19;4885434;28;105489;-74
2021/06/16 01:51:27;;;;;;;7.00;4.10;;;;;;;17.83;73.45;98627.50;4886859;28;103811;-74
2021/06/16 01:53:56;;;;;;;5.32;4.30;;;;;;;17.44;76.58;98626.19;4885791;28;102925;-75
2021/06/16 01:56:25;;;;;;;5.15;4.32;;;;;;;17.04;79.37;98636.56;4886764;28;103189;-75
2021/06/16 01:58:56;;;;;;;5.38;3.70;;;;;;;17.06;78.61;98629.22;4886730;28;103374;-75
2021/06/16 02:01:28;;;;;;;4.63;3.55;;;;;;;17.30;76.97;98632.94;4879347;28;104255;-75
2021/06/16 02:03:57;;;;;;;4.75;3.95;;;;;;;17.32;77.03;98630.09;4886974;28;102891;-75
2021/06/16 02:06:29;;;;;;;6.00;4.32;;;;;;;17.46;76.05;98631.41;4866163;28;102802;-75
2021/06/16 02:08:59;;;;;;;4.97;4.22;;;;;;;17.38;76.72;98625.00;4878497;28;103790;-75
2021/06/16 02:11:28;;;;;;;3.90;3.50;;;;;;;17.64;75.03;98625.06;4883875;28;104993;-74
2021/06/16 02:14:01;;;;;;;4.22;3.10;;;;;;;17.76;74.84;98615.78;4901790;28;103213;-75
2021/06/16 02:16:35;;;;;;;4.20;3.80;;;;;;;17.74;75.55;98615.09;4882297;28;103430;-75
2021/06/16 02:19:09;;;;;;;6.47;4.32;;;;;;;17.06;79.08;98615.88;4877830;28;103794;-75
2021/06/16 02:21:37;;;;;;;4.90;4.40;;;;;;;17.06;78.30;98607.88;4868496;28;103088;-76
2021/06/16 02:24:11;;;;;;;5.57;4.25;;;;;;;16.97;78.45;98604.31;4881295;28;103008;-75
2021/06/16 02:26:40;;;;;;;4.38;3.95;;;;;;;17.03;78.33;98600.19;4883347;28;103223;-75
2021/06/16 02:29:12;;;;;;;3.70;3.40;;;;;;;17.30;76.34;98605.41;4880178;28;103802;-75
2021/06/16 02:31:40;;;;;;;4.10;3.22;;;;;;;17.52;76.27;98604.88;4886585;28;103735;-74
2021/06/16 02:34:09;;;;;;;3.60;3.30;;;;;;;17.61;75.79;98597.81;4886567;28;103059;-76
2021/06/16 02:36:39;;;;;;;4.07;3.70;;;;;;;17.46;77.27;98605.50;4886896;28;103370;-74
2021/06/16 02:39:12;;;;;;;3.80;3.30;;;;;;;17.45;77.54;98593.16;4869541;28;104856;-75
2021/06/16 02:41:43;;;;;;;4.13;3.72;;;;;;;17.50;77.51;98595.38;4878080;28;106124;-74
2021/06/16 02:44:13;;;;;;;6.20;4.22;;;;;;;17.52;76.74;98596.88;4879689;28;102707;-75
2021/06/16 02:46:43;;;;;;;4.10;3.38;;;;;;;17.50;78.11;98596.22;4871858;28;102740;-75
2021/06/16 02:49:13;;;;;;;6.03;3.92;;;;;;;17.26;79.99;98596.84;4886495;28;105223;-74
2021/06/16 02:51:42;;;;;;;8.80;4.75;;;;;;;16.94;82.03;98599.28;4886673;28;105240;-75
2021/06/16 02:54:15;;;;;;;4.40;4.00;;;;;;;16.93;82.65;98596.72;4886990;28;102951;-74
2021/06/16 02:56:44;;;;;;;5.15;4.18;;;;;;;17.05;82.12;98600.84;4891218;28;102931;-74
2021/06/16 02:59:15;;;;;;;4.05;3.75;;;;;;;17.10;82.12;98601.22;4893611;28;105482;-74
2021/06/16 03:01:45;;;;;;;5.78;3.90;;;;;;;16.96;83.67;98596.44;4882931;28;105201;-76
2021/06/16 03:04:14;;;;;;;4.05;3.63;;;;;;;16.87;84.53;98602.72;4875718;28;102720;-75
2021/06/16 03:06:43;;;;;;;5.68;4.00;;;;;;;16.98;83.92;98597.13;4880668;28;103107;-75
2021/06/16 03:09:12;;;;;;;6.28;5.10;;;;;;;16.77;85.59;98592.94;4883310;28;103205;-75
2021/06/16 03:11:40;;;;;;;5.20;4.63;;;;;;;16.80;85.66;98592.63;4879396;28;105487;-75
2021/06/16 03:14:08;;;;;;;4.90;4.43;;;;;;;17.00;83.92;98597.81;4884102;28;102864;-75
2021/06/16 03:16:42;;;;;;;3.38;3.08;;;;;;;17.24;80.78;98595.34;4886829;28;102637;-75
2021/06/16 03:19:11;;;;;;;2.80;2.60;;;;;;;17.32;80.16;98598.06;4889146;28;103766;-75
2021/06/16 03:21:40;;;;;;;3.63;3.33;;;;;;;17.35;80.28;98603.09;4889815;28;103922;-77
2021/06/16 03:24:10;;;;;;;3.80;3.50;;;;;;;17.37;79.86;98596.59;4889181;28;102658;-74
2021/06/16 03:39:25;;;;;;;6.43;4.18;;;;;;;16.88;83.33;98599.03;4874874;28;104040;-77
2021/06/16 03:41:56;;;;;;;5.03;4.53;;;;;;;16.86;83.77;98595.69;4873197;28;104880;-78
2021/06/16 03:44:26;;;;;;;4.80;4.40;;;;;;;16.95;83.09;98598.28;4871839;28;103690;-77
2021/06/16 03:47:24;;;;;;;5.53;4.30;;;;;;;17.05;83.60;98600.84;4851487;28;102638;-78
2021/06/16 03:49:54;;;;;;;5.25;4.75;;;;;;;16.92;84.31;98595.91;4894020;28;102559;-77
2021/06/16 03:52:23;;;;;;;4.32;3.92;;;;;;;16.72;85.96;98594.38;4871666;28;104530;-72
2021/06/16 03:54:53;;;;;;;8.75;4.10;;;;;;;16.97;84.10;98592.78;4865647;28;103203;-73
2021/06/16 03:57:22;;;;;;;4.65;4.25;;;;;;;16.86;85.36;98593.00;4871616;28;102988;-73
2021/06/16 03:59:50;;;;;;;5.32;4.53;;;;;;;16.91;85.60;98593.38;4847791;28;103192;-75
2021/06/16 04:02:20;;;;;;;4.28;3.88;;;;;;;16.89;85.41;98595.38;4866941;28;103917;-74
2021/06/16 04:04:48;;;;;;;4.40;3.90;;;;;;;17.11;83.98;98594.91;4872410;28;104115;-79
2021/06/16 04:07:18;;;;;;;4.22;3.83;;;;;;;17.30;82.87;98594.72;4865491;28;103034;-74
2021/06/16 04:09:50;;;;;;;6.18;4.40;;;;;;;17.34;82.93;98590.75;4862323;28;104572;-73
2021/06/16 04:12:19;;;;;;;4.72;4.32;;;;;;;17.26;83.21;98593.38;4868376;28;104369;-74
2021/06/16 04:14:48;;;;;;;5.47;4.35;;;;;;;17.30;83.26;98590.22;4867960;28;103214;-73
2021/06/16 04:17:17;;;;;;;5.57;3.97;;;;;;;17.46;82.13;98592.16;4866427;28;103250;-73
2021/06/16 04:19:46;;;;;;;4.25;3.85;;;;;;;17.60;81.46;98590.81;4872499;28;103196;-73
2021/06/16 04:22:18;;;;;;;3.42;3.13;;;;;;;17.69;81.02;98590.69;4867864;28;103393;-73
2021/06/16 04:24:46;;;;;;;5.75;4.35;;;;;;;17.79;80.79;98586.09;4863625;28;104399;-74
2021/06/16 04:27:15;;;;;;;3.97;3.10;;;;;;;17.79;80.57;98580.72;4865575;28;103085;-73
2021/06/16 04:29:45;;;;;;;6.43;5.07;;;;;;;17.70;81.58;98581.69;4865608;28;104564;-73
2021/06/16 04:32:13;;;;;;;4.80;4.40;;;;;;;17.75;81.38;98581.19;4866794;28;103997;-74
2021/06/16 04:34:41;;;;;;;4.53;3.38;;;;;;;17.86;80.73;98581.75;4863531;28;104144;-76
2021/06/16 04:37:10;;;;;;;3.30;3.00;;;;;;;18.07;80.19;98577.84;4868929;28;103995;-73
2021/06/16 04:39:40;;;;;;;4.30;3.25;;;;;;;18.18;80.49;98578.41;4866213;28;102936;-73
2021/06/16 04:42:08;;;;;;;4.45;3.67;;;;;;;18.27;79.78;98580.09;4850671;28;103775;-73
2021/06/16 04:44:37;;;;;;;5.57;3.35;;;;;;;18.27;79.90;98573.94;4865156;28;103777;-73
2021/06/16 04:47:16;;;;;;;3.17;2.72;;;;;;;18.42;79.16;98570.44;4864780;28;103167;-74
2021/06/16 04:49:45;;;;;;;4.60;4.20;;;;;;;18.43;79.57;98569.47;4839156;29;103203;-74
2021/06/16 04:52:16;;;;;;;3.53;3.20;;;;;;;18.51;78.08;98571.34;4855950;28;105405;-73
2021/06/16 04:54:44;;;;;;;3.22;2.92;;;;;;;18.61;77.32;98571.22;4864735;28;103752;-73
2021/06/16 04:57:12;;;;;;;3.60;3.17;;;;;;;18.70;77.35;98576.38;4859696;28;103150;-73
2021/06/16 04:59:40;;;;;;;4.45;3.72;;;;;;;18.80;76.94;98577.09;4867230;28;103189;-74
2021/06/16 05:02:13;;;;;;;3.78;3.47;;;;;;;18.91;76.75;98571.41;4864557;28;103357;-73
2021/06/16 05:04:41;;;;;;;3.65;3.30;;;;;;;19.00;76.47;98572.25;4861658;28;103862;-73
2021/06/16 05:07:09;;;;;;;4.30;3.83;;;;;;;19.02;77.17;98579.13;4864504;28;103104;-74
2021/06/16 05:09:37;;;;;;;6.25;5.25;;;;;;;18.91;78.92;98574.09;4865815;28;103043;-73
2021/06/16 05:12:06;;;;;;;5.05;4.57;;;;;;;18.98;79.20;98579.59;4864884;28;104571;-74
2021/06/16 05:14:34;;;;;;;4.70;4.00;;;;;;;19.02;79.12;98565.72;4847104;28;110684;-73
2021/06/16 05:17:02;;;;;;;4.90;4.50;;;;;;;19.02;79.76;98565.72;4855933;28;103224;-75
2021/06/16 05:19:33;;;;;;;3.72;3.42;;;;;;;19.28;78.98;98564.72;4861683;28;102826;-73
2021/06/16 05:22:10;;;;;;;4.38;3.97;;;;;;;19.43;77.57;98568.41;4848915;28;104985;-73
2021/06/16 05:24:38;;;;;;;4.97;4.10;;;;;;;19.52;76.95;98562.88;4857863;28;103693;-74
2021/06/16 05:27:07;;;;;;;10.55;6.70;;;;;;;19.38;77.91;98566.25;4863041;28;103519;-73
2021/06/16 05:29:35;;;;;;;5.60;4.70;;;;;;;19.58;76.90;98572.91;4864359;28;107025;-78
2021/06/16 05:32:04;;;;;;;7.75;5.90;;;;;;;19.56;78.24;98568.72;4898397;23;104686;-71
2021/06/16 05:34:33;;;;;;;8.45;4.95;;;;;;;19.61;78.21;98569.88;4886746;28;103774;-73
2021/06/16 05:37:01;;;;;;;7.22;5.55;;;;;;;19.68;77.62;98561.97;4885415;28;103277;-74
2021/06/16 05:39:31;;;;;;;5.95;5.38;;;;;;;19.90;76.68;98571.97;4886179;28;103166;-74
2021/06/16 05:42:00;;;;;;;5.10;4.65;;;;;;;20.09;76.44;98568.91;4871442;28;103932;-72
2021/06/16 05:44:28;;;;;;;5.93;4.78;;;;;;;20.13;75.55;98567.53;4885966;28;103668;-83
2021/06/16 05:46:56;;;;;;;5.80;4.10;;;;;;;20.35;75.21;98570.50;4875064;28;104452;-75
2021/06/16 05:49:24;;;;;;;6.28;4.40;;;;;;;20.53;74.77;98571.06;4866528;28;103230;-75
2021/06/16 05:51:53;;;;;;;6.10;5.50;;;;;;;20.62;74.33;98562.78;4880664;28;105393;-73
2021/06/16 05:54:21;;;;;;;7.55;5.97;;;;;;;20.70;73.84;98569.94;4877671;28;103752;-73
2021/06/16 05:56:50;;;;;;;5.57;4.53;;;;;;;20.83;73.25;98562.97;4878130;28;103791;-71
2021/06/16 05:59:18;;;;;;;4.88;4.35;;;;;;;20.99;72.60;98564.72;4870056;28;103716;-73
2021/06/16 06:01:46;;;;;;;4.45;3.72;;;;;;;21.11;72.09;98563.28;4877120;28;104034;-73
2021/06/16 06:04:14;;;;;;;5.28;4.40;;;;;;;21.08;71.86;98569.00;4875755;28;103965;-73
2021/06/16 06:06:42;;;;;;;6.57;4.85;;;;;;;21.01;71.23;98562.69;4863060;28;103118;-73
2021/06/16 06:09:14;;;;;;;5.50;4.78;;;;;;;21.34;70.36;98558.72;4879968;28;103534;-73
2021/06/16 06:11:42;;;;;;;5.55;3.88;;;;;;;21.59;68.76;98562.00;4875286;28;104768;-73
2021/06/16 06:14:10;;;;;;;6.50;4.20;;;;;;;21.61;68.56;98553.78;4872961;28;103821;-74
2021/06/16 06:16:40;;;;;;;4.30;3.90;;;;;;;21.67;69.11;98558.41;4859412;28;103241;-73
2021/06/16 06:19:09;;;;;;;5.32;4.63;;;;;;;21.89;67.29;98560.22;4857572;28;103399;-74
2021/06/16 06:21:39;;;;;;;4.50;4.05;;;;;;;21.93;66.97;98556.13;4854372;28;104041;-73
2021/06/16 06:24:08;;;;;;;6.80;4.03;;;;;;;22.12;66.10;98557.44;4844946;28;103350;-75
2021/06/16 06:26:38;;;;;;;6.53;3.85;;;;;;;22.17;64.94;98561.22;4860161;28;103089;-73
2021/06/16 06:29:06;;;;;;;5.00;3.53;;;;;;;22.38;64.25;98555.88;4853839;28;103230;-74
2021/06/16 06:31:34;;;;;;;3.67;3.35;;;;;;;22.49;64.58;98562.63;4855287;28;104548;-73
2021/06/16 06:34:02;;;;;;;6.80;4.13;;;;;;;22.55;62.91;98559.19;4863781;28;103795;-72
2021/06/16 06:36:33;;;;;;;9.05;4.63;;;;;;;22.54;62.95;98566.41;4864385;28;103561;-72
2021/06/16 06:39:02;;;;;;;6.68;4.03;;;;;;;22.58;62.69;98566.03;4861283;28;103206;-72
2021/06/16 06:41:32;;;;;;;4.57;4.10;;;;;;;22.64;62.28;98565.31;4859992;28;103338;-73
2021/06/16 06:44:02;;;;;;;4.38;3.22;;;;;;;22.98;61.66;98562.78;4865716;28;103354;-72
2021/06/16 06:46:30;;;;;;;3.80;3.28;;;;;;;22.97;60.83;98559.25;4865724;28;103633;-73
2021/06/16 06:49:01;;;;;;;6.88;3.88;;;;;;;23.14;60.57;98554.44;4864869;28;102948;-73
2021/06/16 06:51:29;;;;;;;6.53;3.80;;;;;;;23.23;60.89;98552.44;4864863;28;105839;-72
2021/06/16 06:53:59;;;;;;;6.07;3.70;;;;;;;23.36;59.20;98547.13;4860317;28;104266;-75
2021/06/16 06:56:27;;;;;;;3.20;2.90;;;;;;;23.58;59.57;98544.25;4846265;28;104123;-74
2021/06/16 06:58:55;;;;;;;3.72;3.30;;;;;;;23.77;59.34;98544.59;4849339;28;103467;-74
2021/06/16 07:01:24;;;;;;;3.97;3.00;;;;;;;23.81;58.85;98545.84;4850720;28;103545;-73
2021/06/16 07:03:53;;;;;;;4.95;3.25;;;;;;;23.88;58.29;98544.03;4842049;28;105225;-73
2021/06/16 07:06:23;;;;;;;3.88;3.28;;;;;;;24.16;58.10;98545.66;4853027;28;103181;-73
2021/06/16 07:08:51;;;;;;;3.28;2.90;;;;;;;24.49;57.21;98540.38;4857463;28;103286;-73
2021/06/16 07:11:19;;;;;;;4.45;3.03;;;;;;;24.55;57.44;98544.97;4859979;28;104386;-73
2021/06/16 07:13:47;;;;;;;4.88;3.38;;;;;;;24.69;56.13;98535.88;4846498;28;106255;-73
2021/06/16 07:16:20;;;;;;;7.43;4.22;;;;;;;24.25;56.26;98543.63;4849940;28;103365;-74
2021/06/16 07:18:51;;;;;;;4.00;3.60;;;;;;;24.29;58.82;98542.19;4853846;28;103860;-73
2021/06/16 07:21:20;;;;;;;7.70;3.50;;;;;;;24.59;56.77;98535.41;4850667;28;107949;-73
2021/06/16 07:23:48;;;;;;;4.63;3.05;;;;;;;24.82;55.85;98536.97;4847339;28;108612;-73
2021/06/16 07:26:17;;;;;;;7.05;3.30;;;;;;;25.03;56.60;98536.78;4865285;28;103180;-73
2021/06/16 07:28:45;;;;;;;5.38;3.45;;;;;;;25.28;56.05;98537.84;4864662;28;103127;-73
2021/06/16 07:31:13;;;;;;;3.53;3.20;;;;;;;25.57;54.62;98526.59;4844333;28;104351;-73
2021/06/16 07:33:42;;;;;;;6.70;3.17;;;;;;;25.76;53.98;98533.88;4864279;28;105648;-73
2021/06/16 07:36:11;;;;;;;4.38;3.30;;;;;;;25.44;53.96;98533.88;4865313;28;103107;-73
2021/06/16 07:38:43;;;;;;;4.82;3.20;;;;;;;25.62;53.94;98526.00;4853578;28;103136;-73
2021/06/16 07:41:14;;;;;;;5.90;3.30;;;;;;;25.74;53.08;98527.84;4863400;28;104912;-73
2021/06/16 07:43:44;;;;;;;6.40;3.58;;;;;;;25.72;53.64;98527.22;4847076;29;103339;-73
2021/06/16 07:46:13;;;;;;;4.88;3.53;;;;;;;25.62;53.83;98521.44;4856239;28;103268;-73
2021/06/16 07:48:41;;;;;;;7.13;3.20;;;;;;;26.11;52.71;98525.44;4856767;28;103201;-71
2021/06/16 07:51:10;;;;;;;4.10;2.88;;;;;;;26.76;52.53;98525.16;4864432;28;105256;-71
2021/06/16 07:53:40;;;;;;;5.53;3.60;;;;;;;27.11;50.59;98513.91;4875001;28;103293;-74
2021/06/16 07:56:08;;;;;;;7.47;3.55;;;;;;;27.31;49.61;98525.44;4863383;28;102934;-73
2021/06/16 07:58:39;;;;;;;3.10;2.55;;;;;;;27.52;49.94;98522.34;4840573;28;104565;-73
2021/06/16 08:01:07;;;;;;;5.65;3.33;;;;;;;26.94;49.56;98528.00;4837160;28;105482;-75
2021/06/16 08:03:35;;;;;;;8.07;3.45;;;;;;;26.50;50.82;98519.88;4841480;28;104241;-78
2021/06/16 08:06:04;;;;;;;9.38;3.53;;;;;;;26.11;50.69;98517.31;4853519;28;104143;-73
2021/06/16 08:08:36;;;;;;;5.18;3.40;;;;;;;27.37;50.02;98513.69;4866459;28;103339;-72
2021/06/16 08:11:05;;;;;;;3.65;3.03;;;;;;;28.45;46.51;98514.84;4857702;28;103392;-73
2021/06/16 08:13:35;;;;;;;4.07;2.85;;;;;;;28.67;47.58;98518.75;4859834;28;103808;-73
2021/06/16 08:16:09;;;;;;;6.80;3.60;;;;;;;28.73;47.89;98518.66;4855961;28;103085;-74
2021/06/16 08:18:37;;;;;;;3.38;2.70;;;;;;;29.25;46.33;98517.03;4808209;29;103384;-73
2021/06/16 08:21:07;;;;;;;3.50;2.92;;;;;;;29.47;45.07;98511.03;4847596;28;106136;-74
2021/06/16 08:23:37;;;;;;;5.65;2.97;;;;;;;29.53;44.36;98508.19;4850063;28;103765;-74
2021/06/16 08:26:05;;;;;;;6.00;2.92;;;;;;;30.34;43.27;98504.56;4856448;28;103059;-74
2021/06/16 08:28:34;;;;;;;9.40;3.15;;;;;;;29.97;44.40;98504.06;4863761;28;102734;-78
2021/06/16 08:31:02;;;;;;;4.50;3.00;;;;;;;30.55;41.87;98503.91;4852210;28;104068;-76
2021/06/16 08:33:31;;;;;;;3.50;2.58;;;;;;;30.86;40.30;98497.13;4867221;28;103790;-75
2021/06/16 08:35:59;;;;;;;4.80;3.10;;;;;;;31.39;42.09;98497.53;4866545;28;103008;-75
2021/06/16 08:38:28;;;;;;;7.68;3.00;;;;;;;31.46;42.07;98492.72;4855916;28;103258;-74
2021/06/16 08:41:05;;;;;;;6.38;2.88;;;;;;;31.53;40.50;98490.69;4866539;28;103773;-76
2021/06/16 08:43:39;;;;;;;4.40;2.90;;;;;;;30.31;41.56;98489.53;4867550;28;103784;-75
2021/06/16 08:46:09;;;;;;;5.32;2.90;;;;;;;30.79;41.30;98491.00;4878606;28;103305;-74
2021/06/16 08:48:38;;;;;;;4.75;2.83;;;;;;;31.21;39.61;98491.50;4863061;28;103676;-75
2021/06/16 08:51:07;;;;;;;9.18;2.63;;;;;;;32.21;39.53;98489.47;4862258;28;104074;-78
2021/06/16 08:53:36;;;;;;;4.03;2.90;;;;;;;32.08;38.32;98490.69;4862752;28;103848;-75
2021/06/16 08:56:10;;;;;;;6.32;2.70;;;;;;;32.29;37.05;98494.47;4865544;28;103106;-73
2021/06/16 08:58:42;;;;;;;6.10;2.55;;;;;;;32.92;37.61;98487.53;4863325;28;103119;-73
2021/06/16 09:01:16;;;;;;;5.40;2.53;;;;;;;32.73;39.36;98486.25;4833282;28;103737;-77
2021/06/16 09:03:46;;;;;;;7.03;2.53;;;;;;;32.77;38.29;98482.72;4849486;28;103209;-76
2021/06/16 09:06:17;;;;;;;7.75;2.75;;;;;;;33.16;37.87;98486.13;4842362;28;103142;-75
2021/06/16 09:08:57;;;;;;;3.05;2.58;;;;;;;33.06;38.19;98484.16;4857960;28;103285;-75
2021/06/16 09:11:28;;;;;;;5.22;2.40;;;;;;;33.26;35.63;98481.56;4864293;28;103496;-74
2021/06/16 09:14:12;;;;;;;4.18;2.28;;;;;;;33.18;36.54;98481.25;4844486;28;104568;-78
2021/06/16 09:16:40;;;;;;;3.50;2.50;;;;;;;32.72;36.64;98484.59;4843938;28;104118;-74
2021/06/16 09:19:23;;;;;;;2.30;2.05;;;;;;;32.84;36.46;98482.53;4854321;28;103371;-75
2021/06/16 09:21:59;;;;;;;4.88;2.70;;;;;;;33.01;34.74;98478.56;4855511;28;104243;-78
2021/06/16 09:24:44;;;;;;;3.20;2.40;;;;;;;33.92;35.74;98475.72;4863650;28;105161;-74
2021/06/16 09:27:38;;;;;;;6.43;2.60;;;;;;;33.71;36.05;98478.34;4854963;28;102992;-74
2021/06/16 09:30:39;;;;;;;5.63;2.83;;;;;;;33.21;35.09;98488.91;4852466;28;103300;-75
2021/06/16 09:33:13;;;;;;;5.88;2.50;;;;;;;33.65;33.54;98471.22;4859598;28;104467;-73
2021/06/16 09:35:43;;;;;;;5.22;2.70;;;;;;;33.80;34.49;98465.78;4863756;28;103701;-76
2021/06/16 09:38:21;;;;;;;5.13;2.40;;;;;;;33.46;34.52;98469.13;4864136;28;103135;-76
2021/06/16 09:40:49;;;;;;;3.80;2.63;;;;;;;34.10;34.98;98469.81;4848983;28;103195;-75
2021/06/16 09:43:23;;;;;;;5.47;2.65;;;;;;;33.95;35.21;98467.78;4849234;28;104272;-74
2021/06/16 09:45:56;;;;;;;4.90;2.55;;;;;;;33.85;34.81;98465.03;4862669;28;104114;-74
2021/06/16 09:48:32;;;;;;;3.00;2.47;;;;;;;34.76;34.58;98468.94;4858887;28;103235;-80
2021/06/16 09:51:19;;;;;;;6.40;2.55;;;;;;;34.06;34.69;98463.19;4846568;28;103328;-76
2021/06/16 09:54:14;;;;;;;3.25;2.80;;;;;;;33.95;35.64;98469.72;4867221;28;104599;-79
2021/06/16 09:56:44;;;;;;;4.90;2.40;;;;;;;34.95;35.42;98459.09;4868449;28;106467;-78
2021/06/16 09:59:34;;;;;;;3.55;2.50;;;;;;;35.10;35.03;98468.44;4858292;28;103354;-75
2021/06/16 10:02:02;;;;;;;4.80;2.88;;;;;;;35.20;33.74;98463.78;4844461;28;103389;-75
2021/06/16 10:04:36;;;;;;;3.72;2.30;;;;;;;35.11;34.19;98453.63;4854145;28;103492;-79
2021/06/16 10:07:17;;;;;;;3.35;2.58;;;;;;;34.68;33.80;98454.94;4869924;28;103770;-76
2021/06/16 10:09:54;;;;;;;4.85;3.28;;;;;;;32.13;38.20;98459.84;4848648;28;103307;-77
2021/06/16 10:12:24;;;;;;;5.95;2.95;;;;;;;33.96;36.38;98457.66;4857909;28;103101;-74
2021/06/16 10:14:57;;;;;;;4.63;2.75;;;;;;;34.42;33.32;98454.03;4852915;28;104596;-74
2021/06/16 10:17:25;;;;;;;3.25;2.10;;;;;;;34.98;34.13;98459.66;4849871;28;103783;-76
2021/06/16 10:19:54;;;;;;;4.13;2.75;;;;;;;35.07;34.68;98447.88;4860399;28;103166;-76
2021/06/16 10:22:22;;;;;;;2.70;2.50;;;;;;;35.22;34.49;98447.03;4855196;28;104422;-81
2021/06/16 10:24:51;;;;;;;2.50;2.30;;;;;;;35.74;33.25;98444.78;4855750;28;104492;-74
2021/06/16 10:27:26;;;;;;;4.22;2.80;;;;;;;35.25;33.03;98441.00;4846172;28;107403;-74
2021/06/16 10:30:04;;;;;;;3.20;2.90;;;;;;;35.10;33.83;98433.59;4863006;28;103258;-74
2021/06/16 10:32:41;;;;;;;4.78;2.92;;;;;;;35.39;33.77;98437.41;4860147;28;103240;-75
2021/06/16 10:35:11;;;;;;;5.07;3.15;;;;;;;35.09;33.98;98437.44;4862996;28;103815;-76
2021/06/16 10:37:41;;;;;;;3.63;2.70;;;;;;;35.22;34.80;98425.91;4863759;28;107118;-75
2021/06/16 10:40:33;;;;;;;4.38;2.85;;;;;;;34.34;34.65;98438.09;4858386;28;103283;-79
2021/06/16 10:43:21;;;;;;;6.50;3.20;;;;;;;33.69;35.41;98428.47;4867494;28;103890;-78
2021/06/16 10:45:56;;;;;;;5.15;2.45;;;;;;;34.38;36.78;98422.78;4835475;28;105699;-78
2021/06/16 10:48:58;;;;;;;2.75;2.53;;;;;;;34.99;35.13;98420.13;4845666;28;103759;-77
2021/06/16 10:51:32;;;;;;;4.50;2.58;;;;;;;35.13;35.01;98419.31;4836849;28;103264;-77
2021/06/16 10:54:18;;;;;;;4.10;2.58;;;;;;;35.24;34.73;98411.91;4849521;28;103675;-77
2021/06/16 10:56:54;;;;;;;3.10;2.47;;;;;;;35.58;33.97;98421.19;4845029;28;104377;-79
2021/06/16 11:00:04;;;;;;;2.72;2.53;;;;;;;35.40;32.96;98413.50;4854379;28;104219;-79
2021/06/16 11:03:11;;;;;;;3.00;2.40;;;;;;;35.93;33.30;98407.34;4841493;28;103777;-82
2021/06/16 11:05:44;;;;;;;3.13;2.75;;;;;;;35.53;33.53;98414.88;4836312;28;104316;-81
2021/06/16 11:08:55;;;;;;;3.70;2.40;;;;;;;35.45;34.88;98408.03;4859365;28;104794;-78
2021/06/16 11:11:24;;;;;;;5.90;2.65;;;;;;;36.25;34.01;98408.88;4826659;28;104667;-81
2021/06/16 11:13:53;;;;;;;4.82;2.53;;;;;;;35.63;33.58;98401.94;4851237;28;103547;-80
2021/06/16 11:16:45;;;;;;;3.80;2.42;;;;;;;35.44;34.12;98403.63;4849825;28;103427;-78
2021/06/16 11:19:23;;;;;;;5.65;3.55;;;;;;;35.24;35.26;98398.16;4833843;28;108228;-77
2021/06/16 11:21:56;;;;;;;4.10;2.70;;;;;;;35.38;32.66;98393.75;4849809;28;104396;-77
2021/06/16 11:25:02;;;;;;;3.60;3.03;;;;;;;36.27;32.74;98392.94;4841806;28;103569;-77
2021/06/16 11:28:02;;;;;;;5.07;3.58;;;;;;;36.03;31.03;98390.00;4853408;28;105077;-76
2021/06/16 11:30:33;;;;;;;8.88;3.42;;;;;;;35.81;30.42;98382.13;4854318;28;110943;-75
2021/06/16 11:33:34;;;;;;;2.80;2.60;;;;;;;35.63;30.30;98379.16;4847707;28;104514;-75
2021/06/16 11:36:07;;;;;;;3.38;2.67;;;;;;;35.89;30.41;98376.03;4851753;28;103388;-75
2021/06/16 11:38:37;;;;;;;4.28;2.78;;;;;;;36.23;30.57;98378.09;4861857;28;103258;-74
2021/06/16 11:41:10;;;;;;;3.65;2.50;;;;;;;36.50;31.67;98378.50;4861515;28;103864;-74
2021/06/16 11:43:40;;;;;;;3.95;2.45;;;;;;;36.80;31.91;98378.28;4862230;28;103079;-74
2021/06/16 11:46:14;;;;;;;5.60;2.97;;;;;;;35.42;32.02;98372.88;4862246;28;102843;-77
2021/06/16 11:48:43;;;;;;;4.50;2.60;;;;;;;36.08;30.59;98361.66;4851425;28;103121;-75
2021/06/16 11:51:13;;;;;;;2.97;2.67;;;;;;;36.40;31.38;98367.53;4848959;28;105034;-76
2021/06/16 11:53:41;;;;;;;4.00;3.00;;;;;;;36.25;30.32;98364.88;4854157;28;103725;-76
2021/06/16 11:56:10;;;;;;;5.50;2.90;;;;;;;35.85;29.39;98361.19;4854481;28;103353;-79
2021/06/16 11:58:39;;;;;;;3.88;2.55;;;;;;;35.84;29.69;98353.25;4838714;29;103274;-74